sensor_id;sensor_type;location;lat;lon;timestamp;P1;durP1;ratioP1;P2;durP2;ratioP2
60098;SDS011;62818;49.394;8.686;2024-01-30T00:02:34;16.90;;;9.80;;
60098;SDS011;62818;49.394;8.686;2024-01-30T00:07:34;15.68;;;10.25;;
60098;SDS011;62818;49.394;8.686;2024-01-30T00:12:35;11.37;;;8.20;;
60098;SDS011;62818;49.394;8.686;2024-01-30T00:17:36;16.93;;;9.20;;
60098;SDS011;62818;49.394;8.686;2024-01-30T00:22:37;14.73;;;9.02;;
60098;SDS011;62818;49.394;8.686;2024-01-30T00:27:37;13.60;;;9.73;;
60098;SDS011;62818;49.394;8.686;2024-01-30T00:32:38;15.33;;;8.97;;
60098;SDS011;62818;49.394;8.686;2024-01-30T00:37:38;15.50;;;8.80;;
60098;SDS011;62818;49.394;8.686;2024-01-30T00:42:39;14.37;;;9.70;;
60098;SDS011;62818;49.394;8.686;2024-01-30T00:47:39;13.20;;;9.53;;
60098;SDS011;62818;49.394;8.686;2024-01-30T00:52:40;16.43;;;9.87;;
60098;SDS011;62818;49.394;8.686;2024-01-30T00:57:41;13.77;;;8.93;;
60098;SDS011;62818;49.394;8.686;2024-01-30T01:02:42;12.13;;;9.37;;
60098;SDS011;62818;49.394;8.686;2024-01-30T01:07:43;10.85;;;8.13;;
60098;SDS011;62818;49.394;8.686;2024-01-30T01:12:45;16.25;;;9.23;;
60098;SDS011;62818;49.394;8.686;2024-01-30T01:17:46;13.43;;;9.55;;
60098;SDS011;62818;49.394;8.686;2024-01-30T01:22:47;16.25;;;9.25;;
60098;SDS011;62818;49.394;8.686;2024-01-30T01:27:47;17.03;;;9.50;;
60098;SDS011;62818;49.394;8.686;2024-01-30T01:32:51;12.27;;;9.55;;
60098;SDS011;62818;49.394;8.686;2024-01-30T01:37:55;12.77;;;9.07;;
60098;SDS011;62818;49.394;8.686;2024-01-30T01:42:55;12.93;;;8.70;;
60098;SDS011;62818;49.394;8.686;2024-01-30T01:47:56;11.90;;;8.50;;
60098;SDS011;62818;49.394;8.686;2024-01-30T01:52:56;14.57;;;8.60;;
60098;SDS011;62818;49.394;8.686;2024-01-30T01:57:58;13.50;;;8.45;;
60098;SDS011;62818;49.394;8.686;2024-01-30T02:02:59;13.10;;;8.57;;
60098;SDS011;62818;49.394;8.686;2024-01-30T02:08:00;12.10;;;8.52;;
60098;SDS011;62818;49.394;8.686;2024-01-30T02:13:01;11.23;;;8.32;;
60098;SDS011;62818;49.394;8.686;2024-01-30T02:18:02;13.40;;;8.93;;
60098;SDS011;62818;49.394;8.686;2024-01-30T02:23:02;11.18;;;7.60;;
60098;SDS011;62818;49.394;8.686;2024-01-30T02:28:05;14.57;;;8.15;;
60098;SDS011;62818;49.394;8.686;2024-01-30T02:33:05;12.10;;;8.93;;
60098;SDS011;62818;49.394;8.686;2024-01-30T02:38:06;10.00;;;8.10;;
60098;SDS011;62818;49.394;8.686;2024-01-30T02:43:07;13.13;;;7.10;;
60098;SDS011;62818;49.394;8.686;2024-01-30T02:48:07;10.70;;;7.63;;
60098;SDS011;62818;49.394;8.686;2024-01-30T02:53:08;9.07;;;6.25;;
60098;SDS011;62818;49.394;8.686;2024-01-30T02:58:08;9.73;;;6.80;;
60098;SDS011;62818;49.394;8.686;2024-01-30T03:03:09;10.43;;;7.20;;
60098;SDS011;62818;49.394;8.686;2024-01-30T03:08:10;8.95;;;7.32;;
60098;SDS011;62818;49.394;8.686;2024-01-30T03:13:10;9.77;;;6.80;;
60098;SDS011;62818;49.394;8.686;2024-01-30T03:18:11;8.83;;;6.27;;
60098;SDS011;62818;49.394;8.686;2024-01-30T03:23:11;8.07;;;6.33;;
60098;SDS011;62818;49.394;8.686;2024-01-30T03:28:11;7.30;;;6.00;;
60098;SDS011;62818;49.394;8.686;2024-01-30T03:33:12;10.87;;;6.40;;
60098;SDS011;62818;49.394;8.686;2024-01-30T03:38:13;11.63;;;6.07;;
60098;SDS011;62818;49.394;8.686;2024-01-30T03:43:13;9.27;;;6.23;;
60098;SDS011;62818;49.394;8.686;2024-01-30T03:48:13;7.20;;;5.87;;
60098;SDS011;62818;49.394;8.686;2024-01-30T03:53:14;9.15;;;5.72;;
60098;SDS011;62818;49.394;8.686;2024-01-30T03:58:15;7.47;;;6.27;;
60098;SDS011;62818;49.394;8.686;2024-01-30T04:03:15;6.03;;;5.13;;
60098;SDS011;62818;49.394;8.686;2024-01-30T04:08:16;7.03;;;6.07;;
60098;SDS011;62818;49.394;8.686;2024-01-30T04:13:16;9.93;;;6.32;;
60098;SDS011;62818;49.394;8.686;2024-01-30T04:18:17;7.93;;;5.97;;
60098;SDS011;62818;49.394;8.686;2024-01-30T04:23:17;9.53;;;6.33;;
60098;SDS011;62818;49.394;8.686;2024-01-30T04:28:18;6.90;;;5.97;;
60098;SDS011;62818;49.394;8.686;2024-01-30T04:33:18;7.77;;;6.27;;
60098;SDS011;62818;49.394;8.686;2024-01-30T04:38:19;9.60;;;6.47;;
60098;SDS011;62818;49.394;8.686;2024-01-30T04:43:19;9.37;;;6.73;;
60098;SDS011;62818;49.394;8.686;2024-01-30T04:48:20;7.33;;;6.23;;
60098;SDS011;62818;49.394;8.686;2024-01-30T04:53:20;7.60;;;5.55;;
60098;SDS011;62818;49.394;8.686;2024-01-30T04:58:21;11.63;;;6.33;;
60098;SDS011;62818;49.394;8.686;2024-01-30T05:03:21;8.33;;;6.43;;
60098;SDS011;62818;49.394;8.686;2024-01-30T05:08:24;8.65;;;6.75;;
60098;SDS011;62818;49.394;8.686;2024-01-30T05:13:24;9.00;;;5.97;;
60098;SDS011;62818;49.394;8.686;2024-01-30T05:18:25;10.63;;;7.33;;
60098;SDS011;62818;49.394;8.686;2024-01-30T05:23:25;7.83;;;5.97;;
60098;SDS011;62818;49.394;8.686;2024-01-30T05:28:26;11.10;;;6.53;;
60098;SDS011;62818;49.394;8.686;2024-01-30T05:33:26;8.65;;;6.05;;
60098;SDS011;62818;49.394;8.686;2024-01-30T05:38:30;7.07;;;5.85;;
60098;SDS011;62818;49.394;8.686;2024-01-30T05:43:32;9.23;;;6.80;;
60098;SDS011;62818;49.394;8.686;2024-01-30T05:48:32;8.38;;;5.90;;
60098;SDS011;62818;49.394;8.686;2024-01-30T05:53:35;8.70;;;5.97;;
60098;SDS011;62818;49.394;8.686;2024-01-30T05:58:35;9.50;;;6.40;;
60098;SDS011;62818;49.394;8.686;2024-01-30T06:03:37;7.80;;;5.55;;
60098;SDS011;62818;49.394;8.686;2024-01-30T06:08:38;10.63;;;6.80;;
60098;SDS011;62818;49.394;8.686;2024-01-30T06:13:39;9.17;;;6.57;;
60098;SDS011;62818;49.394;8.686;2024-01-30T06:18:39;7.43;;;5.67;;
60098;SDS011;62818;49.394;8.686;2024-01-30T06:23:40;7.80;;;6.30;;
60098;SDS011;62818;49.394;8.686;2024-01-30T06:28:40;9.43;;;6.47;;
60098;SDS011;62818;49.394;8.686;2024-01-30T06:33:41;11.13;;;5.93;;
60098;SDS011;62818;49.394;8.686;2024-01-30T06:38:42;10.65;;;7.30;;
60098;SDS011;62818;49.394;8.686;2024-01-30T06:43:43;11.80;;;8.40;;
60098;SDS011;62818;49.394;8.686;2024-01-30T06:48:45;41.03;;;11.77;;
60098;SDS011;62818;49.394;8.686;2024-01-30T06:53:45;9.00;;;6.83;;
60098;SDS011;62818;49.394;8.686;2024-01-30T06:58:49;19.03;;;10.77;;
60098;SDS011;62818;49.394;8.686;2024-01-30T07:03:50;12.55;;;9.45;;
60098;SDS011;62818;49.394;8.686;2024-01-30T07:08:50;13.87;;;7.23;;
60098;SDS011;62818;49.394;8.686;2024-01-30T07:13:51;10.40;;;6.67;;
60098;SDS011;62818;49.394;8.686;2024-01-30T07:18:51;13.33;;;7.77;;
60098;SDS011;62818;49.394;8.686;2024-01-30T07:23:52;9.45;;;7.65;;
60098;SDS011;62818;49.394;8.686;2024-01-30T07:28:53;9.95;;;7.18;;
60098;SDS011;62818;49.394;8.686;2024-01-30T07:33:53;9.38;;;7.50;;
60098;SDS011;62818;49.394;8.686;2024-01-30T07:38:54;11.52;;;8.00;;
60098;SDS011;62818;49.394;8.686;2024-01-30T07:43:55;12.73;;;7.87;;
60098;SDS011;62818;49.394;8.686;2024-01-30T07:48:55;17.43;;;9.60;;
60098;SDS011;62818;49.394;8.686;2024-01-30T07:53:58;21.55;;;8.60;;
60098;SDS011;62818;49.394;8.686;2024-01-30T07:58:59;19.03;;;9.17;;
60098;SDS011;62818;49.394;8.686;2024-01-30T08:03:59;12.67;;;9.17;;
60098;SDS011;62818;49.394;8.686;2024-01-30T08:09:00;12.10;;;9.17;;
60098;SDS011;62818;49.394;8.686;2024-01-30T08:14:00;11.10;;;8.10;;
60098;SDS011;62818;49.394;8.686;2024-01-30T08:19:00;10.70;;;7.90;;
60098;SDS011;62818;49.394;8.686;2024-01-30T08:24:04;12.43;;;8.27;;
60098;SDS011;62818;49.394;8.686;2024-01-30T08:29:06;10.05;;;7.68;;
60098;SDS011;62818;49.394;8.686;2024-01-30T08:34:06;14.70;;;9.50;;
60098;SDS011;62818;49.394;8.686;2024-01-30T08:39:07;8.90;;;7.03;;
60098;SDS011;62818;49.394;8.686;2024-01-30T08:44:07;12.33;;;8.30;;
60098;SDS011;62818;49.394;8.686;2024-01-30T08:49:08;12.33;;;8.73;;
60098;SDS011;62818;49.394;8.686;2024-01-30T08:54:08;15.23;;;8.65;;
60098;SDS011;62818;49.394;8.686;2024-01-30T08:59:08;13.40;;;9.02;;
60098;SDS011;62818;49.394;8.686;2024-01-30T09:04:09;11.00;;;8.85;;
60098;SDS011;62818;49.394;8.686;2024-01-30T09:09:10;12.30;;;9.10;;
60098;SDS011;62818;49.394;8.686;2024-01-30T09:14:10;11.47;;;8.77;;
60098;SDS011;62818;49.394;8.686;2024-01-30T09:19:11;12.80;;;8.50;;
60098;SDS011;62818;49.394;8.686;2024-01-30T09:24:12;12.63;;;8.27;;
60098;SDS011;62818;49.394;8.686;2024-01-30T09:29:13;11.32;;;8.85;;
60098;SDS011;62818;49.394;8.686;2024-01-30T09:34:13;11.45;;;9.38;;
60098;SDS011;62818;49.394;8.686;2024-01-30T09:39:14;12.55;;;7.55;;
60098;SDS011;62818;49.394;8.686;2024-01-30T09:44:16;19.65;;;12.85;;
60098;SDS011;62818;49.394;8.686;2024-01-30T09:49:17;12.65;;;8.85;;
60098;SDS011;62818;49.394;8.686;2024-01-30T09:54:18;11.35;;;8.32;;
60098;SDS011;62818;49.394;8.686;2024-01-30T09:59:20;13.13;;;8.75;;
60098;SDS011;62818;49.394;8.686;2024-01-30T10:04:20;14.85;;;9.45;;
60098;SDS011;62818;49.394;8.686;2024-01-30T10:09:21;12.25;;;9.60;;
60098;SDS011;62818;49.394;8.686;2024-01-30T10:14:21;12.47;;;8.83;;
60098;SDS011;62818;49.394;8.686;2024-01-30T10:19:22;12.90;;;7.77;;
60098;SDS011;62818;49.394;8.686;2024-01-30T10:24:26;10.43;;;8.73;;
60098;SDS011;62818;49.394;8.686;2024-01-30T10:29:27;13.57;;;7.95;;
60098;SDS011;62818;49.394;8.686;2024-01-30T10:34:29;15.73;;;8.90;;
60098;SDS011;62818;49.394;8.686;2024-01-30T10:39:30;13.02;;;8.07;;
60098;SDS011;62818;49.394;8.686;2024-01-30T10:44:36;15.18;;;9.05;;
60098;SDS011;62818;49.394;8.686;2024-01-30T10:49:46;12.13;;;8.45;;
60098;SDS011;62818;49.394;8.686;2024-01-30T10:59:47;10.82;;;8.23;;
60098;SDS011;62818;49.394;8.686;2024-01-30T11:04:54;10.93;;;7.95;;
60098;SDS011;62818;49.394;8.686;2024-01-30T11:20:10;14.65;;;9.38;;
60098;SDS011;62818;49.394;8.686;2024-01-30T11:25:15;12.52;;;7.55;;
60098;SDS011;62818;49.394;8.686;2024-01-30T11:30:24;12.00;;;8.73;;
60098;SDS011;62818;49.394;8.686;2024-01-30T11:35:31;14.25;;;9.35;;
60098;SDS011;62818;49.394;8.686;2024-01-30T11:40:35;12.48;;;9.43;;
60098;SDS011;62818;49.394;8.686;2024-01-30T11:45:37;12.40;;;8.88;;
60098;SDS011;62818;49.394;8.686;2024-01-30T11:50:39;17.60;;;9.48;;
60098;SDS011;62818;49.394;8.686;2024-01-30T11:55:40;13.38;;;8.75;;
60098;SDS011;62818;49.394;8.686;2024-01-30T12:00:41;12.75;;;9.13;;
60098;SDS011;62818;49.394;8.686;2024-01-30T12:05:42;15.95;;;10.20;;
60098;SDS011;62818;49.394;8.686;2024-01-30T12:10:43;12.65;;;8.95;;
60098;SDS011;62818;49.394;8.686;2024-01-30T12:15:43;16.00;;;8.85;;
60098;SDS011;62818;49.394;8.686;2024-01-30T12:20:44;12.05;;;8.77;;
60098;SDS011;62818;49.394;8.686;2024-01-30T12:25:44;13.47;;;8.37;;
60098;SDS011;62818;49.394;8.686;2024-01-30T12:30:45;13.57;;;8.60;;
60098;SDS011;62818;49.394;8.686;2024-01-30T12:35:46;13.38;;;8.60;;
60098;SDS011;62818;49.394;8.686;2024-01-30T12:40:48;10.82;;;8.20;;
60098;SDS011;62818;49.394;8.686;2024-01-30T12:45:49;12.90;;;8.65;;
60098;SDS011;62818;49.394;8.686;2024-01-30T12:50:50;10.80;;;8.23;;
60098;SDS011;62818;49.394;8.686;2024-01-30T13:00:51;13.77;;;8.57;;
60098;SDS011;62818;49.394;8.686;2024-01-30T13:05:53;12.30;;;8.27;;
60098;SDS011;62818;49.394;8.686;2024-01-30T13:15:53;11.75;;;8.00;;
60098;SDS011;62818;49.394;8.686;2024-01-30T13:25:55;13.37;;;8.87;;
60098;SDS011;62818;49.394;8.686;2024-01-30T13:30:58;12.98;;;8.02;;
60098;SDS011;62818;49.394;8.686;2024-01-30T13:41:00;11.80;;;7.88;;
60098;SDS011;62818;49.394;8.686;2024-01-30T13:51:01;10.50;;;7.43;;
60098;SDS011;62818;49.394;8.686;2024-01-30T14:01:02;14.10;;;7.90;;
60098;SDS011;62818;49.394;8.686;2024-01-30T14:11:04;12.27;;;8.48;;
60098;SDS011;62818;49.394;8.686;2024-01-30T14:21:05;11.85;;;7.68;;
60098;SDS011;62818;49.394;8.686;2024-01-30T14:26:07;13.00;;;8.23;;
60098;SDS011;62818;49.394;8.686;2024-01-30T14:36:08;10.38;;;7.30;;
60098;SDS011;62818;49.394;8.686;2024-01-30T14:41:09;10.65;;;6.50;;
60098;SDS011;62818;49.394;8.686;2024-01-30T14:51:11;9.57;;;7.03;;
60098;SDS011;62818;49.394;8.686;2024-01-30T15:01:11;11.67;;;6.53;;
60098;SDS011;62818;49.394;8.686;2024-01-30T15:11:13;10.85;;;6.53;;
60098;SDS011;62818;49.394;8.686;2024-01-30T15:16:14;11.27;;;6.43;;
60098;SDS011;62818;49.394;8.686;2024-01-30T15:26:20;9.95;;;6.25;;
60098;SDS011;62818;49.394;8.686;2024-01-30T15:36:21;9.45;;;6.57;;
60098;SDS011;62818;49.394;8.686;2024-01-30T15:46:22;12.80;;;6.63;;
60098;SDS011;62818;49.394;8.686;2024-01-30T15:56:23;9.40;;;5.95;;
60098;SDS011;62818;49.394;8.686;2024-01-30T16:06:24;8.70;;;5.97;;
60098;SDS011;62818;49.394;8.686;2024-01-30T16:16:25;8.73;;;5.73;;
60098;SDS011;62818;49.394;8.686;2024-01-30T16:26:27;12.63;;;5.43;;
60098;SDS011;62818;49.394;8.686;2024-01-30T16:36:28;8.25;;;5.43;;
60098;SDS011;62818;49.394;8.686;2024-01-30T16:46:29;8.13;;;6.10;;
60098;SDS011;62818;49.394;8.686;2024-01-30T16:51:30;9.95;;;6.45;;
60098;SDS011;62818;49.394;8.686;2024-01-30T17:01:31;9.37;;;6.60;;
60098;SDS011;62818;49.394;8.686;2024-01-30T17:11:32;13.47;;;8.60;;
60098;SDS011;62818;49.394;8.686;2024-01-30T17:21:33;10.48;;;7.13;;
60098;SDS011;62818;49.394;8.686;2024-01-30T17:31:34;12.73;;;7.03;;
60098;SDS011;62818;49.394;8.686;2024-01-30T17:36:37;15.70;;;6.93;;
60098;SDS011;62818;49.394;8.686;2024-01-30T17:46:37;12.33;;;7.10;;
60098;SDS011;62818;49.394;8.686;2024-01-30T17:51:38;12.25;;;7.68;;
60098;SDS011;62818;49.394;8.686;2024-01-30T17:56:39;10.93;;;7.32;;
60098;SDS011;62818;49.394;8.686;2024-01-30T18:06:49;10.55;;;8.13;;
60098;SDS011;62818;49.394;8.686;2024-01-30T18:11:51;12.05;;;8.45;;
60098;SDS011;62818;49.394;8.686;2024-01-30T18:21:52;12.83;;;7.90;;
60098;SDS011;62818;49.394;8.686;2024-01-30T18:31:54;9.45;;;7.40;;
60098;SDS011;62818;49.394;8.686;2024-01-30T18:42:00;12.77;;;7.95;;
60098;SDS011;62818;49.394;8.686;2024-01-30T18:52:01;14.37;;;8.30;;
60098;SDS011;62818;49.394;8.686;2024-01-30T18:57:04;11.93;;;8.13;;
60098;SDS011;62818;49.394;8.686;2024-01-30T19:07:06;29.15;;;14.63;;
60098;SDS011;62818;49.394;8.686;2024-01-30T19:17:07;31.40;;;11.82;;
60098;SDS011;62818;49.394;8.686;2024-01-30T19:27:08;17.30;;;8.10;;
60098;SDS011;62818;49.394;8.686;2024-01-30T19:37:09;16.47;;;8.70;;
60098;SDS011;62818;49.394;8.686;2024-01-30T19:47:10;12.90;;;9.68;;
60098;SDS011;62818;49.394;8.686;2024-01-30T19:57:12;17.27;;;9.27;;
60098;SDS011;62818;49.394;8.686;2024-01-30T20:07:18;16.45;;;9.68;;
60098;SDS011;62818;49.394;8.686;2024-01-30T20:12:20;16.85;;;10.68;;
60098;SDS011;62818;49.394;8.686;2024-01-30T20:22:21;14.23;;;10.50;;
60098;SDS011;62818;49.394;8.686;2024-01-30T20:27:23;14.27;;;11.02;;
60098;SDS011;62818;49.394;8.686;2024-01-30T20:32:24;15.15;;;11.13;;
60098;SDS011;62818;49.394;8.686;2024-01-30T20:42:25;15.43;;;10.57;;
60098;SDS011;62818;49.394;8.686;2024-01-30T20:52:26;16.40;;;12.02;;
60098;SDS011;62818;49.394;8.686;2024-01-30T21:02:26;20.10;;;11.27;;
60098;SDS011;62818;49.394;8.686;2024-01-30T21:12:27;13.98;;;9.95;;
60098;SDS011;62818;49.394;8.686;2024-01-30T21:22:28;16.10;;;8.97;;
60098;SDS011;62818;49.394;8.686;2024-01-30T21:27:29;15.13;;;11.00;;
60098;SDS011;62818;49.394;8.686;2024-01-30T21:37:31;18.42;;;10.85;;
60098;SDS011;62818;49.394;8.686;2024-01-30T21:42:35;28.10;;;12.80;;
60098;SDS011;62818;49.394;8.686;2024-01-30T21:52:36;19.20;;;12.57;;
60098;SDS011;62818;49.394;8.686;2024-01-30T22:02:37;17.27;;;12.57;;
60098;SDS011;62818;49.394;8.686;2024-01-30T22:12:38;19.37;;;13.63;;
60098;SDS011;62818;49.394;8.686;2024-01-30T22:17:39;18.50;;;12.23;;
60098;SDS011;62818;49.394;8.686;2024-01-30T22:22:39;17.17;;;12.20;;
60098;SDS011;62818;49.394;8.686;2024-01-30T22:27:40;18.50;;;11.30;;
60098;SDS011;62818;49.394;8.686;2024-01-30T22:32:40;17.33;;;11.98;;
60098;SDS011;62818;49.394;8.686;2024-01-30T22:42:42;14.55;;;10.43;;
60098;SDS011;62818;49.394;8.686;2024-01-30T22:47:42;17.48;;;11.70;;
60098;SDS011;62818;49.394;8.686;2024-01-30T22:52:44;17.67;;;10.98;;
60098;SDS011;62818;49.394;8.686;2024-01-30T22:57:46;16.98;;;10.90;;
60098;SDS011;62818;49.394;8.686;2024-01-30T23:07:47;15.27;;;11.30;;
60098;SDS011;62818;49.394;8.686;2024-01-30T23:12:48;18.27;;;11.30;;
60098;SDS011;62818;49.394;8.686;2024-01-30T23:22:49;19.45;;;11.13;;
60098;SDS011;62818;49.394;8.686;2024-01-30T23:27:49;14.95;;;9.85;;
60098;SDS011;62818;49.394;8.686;2024-01-30T23:37:53;16.55;;;10.85;;
60098;SDS011;62818;49.394;8.686;2024-01-30T23:47:54;13.70;;;10.40;;
60098;SDS011;62818;49.394;8.686;2024-01-30T23:57:55;20.53;;;9.97;;
